createdAt,value
2023-05-13T00:00:16.613Z,23.03
2023-05-13T00:02:45.130Z,22.88
2023-05-13T00:05:13.441Z,22.78
2023-05-13T00:07:42.545Z,22.71
2023-05-13T00:10:11.220Z,22.70
2023-05-13T00:12:39.606Z,22.71
2023-05-13T00:15:08.220Z,22.66
2023-05-13T00:17:36.486Z,22.62
2023-05-13T00:20:05.210Z,22.61
2023-05-13T00:22:33.705Z,22.65
2023-05-13T00:25:01.968Z,22.63
2023-05-13T00:27:30.164Z,22.54
2023-05-13T00:30:00.584Z,22.41
2023-05-13T00:32:29.295Z,22.43
2023-05-13T00:34:57.554Z,22.42
2023-05-13T00:37:25.782Z,22.41
2023-05-13T00:39:54.197Z,22.40
2023-05-13T00:42:22.481Z,22.42
2023-05-13T00:44:50.761Z,22.44
2023-05-13T00:47:19.186Z,22.34
2023-05-13T00:49:47.481Z,22.20
2023-05-13T00:52:15.871Z,22.14
2023-05-13T00:54:44.102Z,22.08
2023-05-13T00:57:12.329Z,22.01
2023-05-13T00:59:41.025Z,21.96
2023-05-13T01:02:28.611Z,21.90
2023-05-13T01:05:35.371Z,21.83
2023-05-13T01:08:18.731Z,21.77
2023-05-13T01:11:00.399Z,21.81
2023-05-13T01:13:33.038Z,21.85
2023-05-13T01:16:20.039Z,21.82
2023-05-13T01:18:59.805Z,21.68
2023-05-13T01:21:28.854Z,21.55
2023-05-13T01:23:57.350Z,21.49
2023-05-13T01:26:27.522Z,21.39
2023-05-13T01:28:55.950Z,21.34
2023-05-13T01:31:25.403Z,21.31
2023-05-13T01:33:54.291Z,21.30
2023-05-13T01:36:22.766Z,21.22
2023-05-13T01:38:52.293Z,21.05
2023-05-13T01:41:20.466Z,20.98
2023-05-13T01:43:49.108Z,20.92
2023-05-13T01:46:17.722Z,20.92
2023-05-13T01:48:45.961Z,20.85
2023-05-13T01:51:14.428Z,20.76
2023-05-13T01:53:42.638Z,20.65
2023-05-13T01:56:11.745Z,20.46
2023-05-13T01:58:39.921Z,20.28
2023-05-13T02:01:08.121Z,20.13
2023-05-13T02:03:37.168Z,20.07
2023-05-13T02:06:05.620Z,19.92
2023-05-13T02:08:33.829Z,19.80
2023-05-13T02:11:02.261Z,19.68
2023-05-13T02:13:30.795Z,19.52
2023-05-13T02:15:59.259Z,19.47
2023-05-13T02:18:27.559Z,19.50
2023-05-13T02:20:55.780Z,19.42
2023-05-13T02:23:24.102Z,19.32
2023-05-13T02:25:52.360Z,19.23
2023-05-13T02:28:20.600Z,19.13
2023-05-13T02:30:49.096Z,19.01
2023-05-13T02:33:17.336Z,18.88
2023-05-13T02:35:45.518Z,18.74
2023-05-13T02:38:13.988Z,18.65
2023-05-13T02:40:42.237Z,18.59
2023-05-13T02:43:10.437Z,18.59
2023-05-13T02:45:41.742Z,18.60
2023-05-13T02:48:11.825Z,18.59
2023-05-13T02:50:41.348Z,18.57
2023-05-13T02:53:09.669Z,18.50
2023-05-13T02:55:37.897Z,18.37
2023-05-13T02:58:06.169Z,18.29
2023-05-13T03:00:34.383Z,18.14
2023-05-13T03:03:02.693Z,18.03
2023-05-13T03:05:30.996Z,17.90
2023-05-13T03:07:59.208Z,17.87
2023-05-13T03:10:27.435Z,17.74
2023-05-13T03:12:55.761Z,17.63
2023-05-13T03:15:24.113Z,17.59
2023-05-13T03:17:52.406Z,17.60
2023-05-13T03:20:20.874Z,17.53
2023-05-13T03:22:49.527Z,17.47
2023-05-13T03:25:17.865Z,17.40
2023-05-13T03:27:46.234Z,17.31
2023-05-13T03:30:15.133Z,17.26
2023-05-13T03:32:43.463Z,17.21
2023-05-13T03:35:11.714Z,17.17
2023-05-13T03:37:39.965Z,17.14
2023-05-13T03:40:08.799Z,17.13
2023-05-13T03:42:37.088Z,17.07
2023-05-13T03:45:05.552Z,17.01
2023-05-13T03:47:33.817Z,17.00
2023-05-13T03:50:02.008Z,17.01
2023-05-13T03:52:30.166Z,16.95
2023-05-13T03:54:58.357Z,16.88
2023-05-13T03:57:26.724Z,16.83
2023-05-13T03:59:54.970Z,16.81
2023-05-13T04:02:24.858Z,16.77
2023-05-13T04:04:53.143Z,16.71
2023-05-13T04:07:21.435Z,16.68
2023-05-13T04:09:49.641Z,16.67
2023-05-13T04:12:19.016Z,16.61
2023-05-13T04:14:47.840Z,16.55
2023-05-13T04:17:16.238Z,16.50
2023-05-13T04:19:44.541Z,16.50
2023-05-13T04:22:12.823Z,16.45
2023-05-13T04:24:41.210Z,16.40
2023-05-13T04:27:09.378Z,16.34
2023-05-13T04:29:37.623Z,16.35
2023-05-13T04:32:06.433Z,16.35
2023-05-13T04:34:34.660Z,16.30
2023-05-13T04:37:02.823Z,16.27
2023-05-13T04:39:31.265Z,16.30
2023-05-13T04:41:59.464Z,16.30
2023-05-13T04:44:27.675Z,16.30
2023-05-13T04:46:55.864Z,16.26
2023-05-13T04:49:24.031Z,16.17
2023-05-13T04:51:52.563Z,16.07
2023-05-13T04:54:21.563Z,16.01
2023-05-13T04:56:49.970Z,15.98
2023-05-13T04:59:18.349Z,15.95
2023-05-13T05:01:47.144Z,15.95
2023-05-13T05:04:15.622Z,15.86
2023-05-13T05:06:43.848Z,15.74
2023-05-13T05:09:12.320Z,15.69
2023-05-13T05:11:40.535Z,15.68
2023-05-13T05:14:08.805Z,15.66
2023-05-13T05:16:37.071Z,15.65
2023-05-13T05:19:05.317Z,15.67
2023-05-13T05:21:33.506Z,15.70
2023-05-13T05:24:02.782Z,15.72
2023-05-13T05:26:31.111Z,15.62
2023-05-13T05:28:59.323Z,15.61
2023-05-13T05:31:28.389Z,15.65
2023-05-13T05:33:57.408Z,15.64
2023-05-13T05:36:25.683Z,15.64
2023-05-13T05:38:53.864Z,15.65
2023-05-13T05:41:22.943Z,15.63
2023-05-13T05:43:51.305Z,15.64
2023-05-13T05:46:19.639Z,15.62
2023-05-13T05:48:48.263Z,15.60
2023-05-13T05:51:16.765Z,15.57
2023-05-13T05:53:45.069Z,15.44
2023-05-13T05:56:13.367Z,15.39
2023-05-13T05:58:41.674Z,15.33
2023-05-13T06:01:09.917Z,15.32
2023-05-13T06:03:38.357Z,15.35
2023-05-13T06:06:06.862Z,15.36
2023-05-13T06:08:35.021Z,15.35
2023-05-13T06:11:03.215Z,15.35
2023-05-13T06:13:31.582Z,15.34
2023-05-13T06:15:59.824Z,15.29
2023-05-13T06:18:28.075Z,15.32
2023-05-13T06:20:56.314Z,15.35
2023-05-13T06:23:24.530Z,15.37
2023-05-13T06:25:52.798Z,15.36
2023-05-13T06:28:21.033Z,15.36
2023-05-13T06:30:49.453Z,15.35
2023-05-13T06:33:17.748Z,15.30
2023-05-13T06:35:49.001Z,15.24
2023-05-13T06:38:20.582Z,15.25
2023-05-13T06:40:49.217Z,15.24
2023-05-13T06:43:18.868Z,15.22
2023-05-13T06:45:47.114Z,15.20
2023-05-13T06:48:15.555Z,15.14
2023-05-13T06:50:43.756Z,15.11
2023-05-13T06:53:14.871Z,15.08
2023-05-13T06:55:43.436Z,15.08
2023-05-13T06:58:12.105Z,15.06
2023-05-13T07:00:41.908Z,15.04
2023-05-13T07:03:10.152Z,15.03
2023-05-13T07:05:38.455Z,15.00
2023-05-13T07:08:09.753Z,14.98
2023-05-13T07:10:38.096Z,14.95
2023-05-13T07:13:06.377Z,14.94
2023-05-13T07:15:34.604Z,14.93
2023-05-13T07:18:02.895Z,14.90
2023-05-13T07:20:31.382Z,14.87
2023-05-13T07:22:59.750Z,14.82
2023-05-13T07:25:28.071Z,14.84
2023-05-13T07:27:56.280Z,14.87
2023-05-13T07:30:24.940Z,14.88
2023-05-13T07:32:54.163Z,14.84
2023-05-13T07:35:24.076Z,14.82
2023-05-13T07:37:52.442Z,14.77
2023-05-13T07:40:21.873Z,14.76
2023-05-13T07:42:50.427Z,14.75
2023-05-13T07:45:18.712Z,14.77
2023-05-13T07:47:46.989Z,14.75
2023-05-13T07:50:15.389Z,14.71
2023-05-13T07:52:44.488Z,14.69
2023-05-13T07:55:12.720Z,14.69
2023-05-13T07:57:40.936Z,14.68
2023-05-13T08:00:09.735Z,14.64
2023-05-13T08:02:43.646Z,14.62
2023-05-13T08:05:13.113Z,14.57
2023-05-13T08:07:41.370Z,14.55
2023-05-13T08:10:09.835Z,14.56
2023-05-13T08:12:38.145Z,14.54
2023-05-13T08:15:07.033Z,14.52
2023-05-13T08:17:36.228Z,14.51
2023-05-13T08:20:04.652Z,14.50
2023-05-13T08:22:32.862Z,14.50
2023-05-13T08:25:01.927Z,14.50
2023-05-13T08:27:30.197Z,14.51
2023-05-13T08:29:58.420Z,14.52
2023-05-13T08:32:26.707Z,14.52
2023-05-13T08:34:54.987Z,14.51
2023-05-13T08:37:23.290Z,14.49
2023-05-13T08:39:51.592Z,14.48
2023-05-13T08:42:23.850Z,14.43
2023-05-13T08:44:54.115Z,14.35
2023-05-13T08:47:37.294Z,14.29
2023-05-13T08:50:06.408Z,14.23
2023-05-13T08:52:34.711Z,14.15
2023-05-13T08:55:03.336Z,14.11
2023-05-13T08:57:31.805Z,14.07
2023-05-13T08:59:59.990Z,14.07
2023-05-13T09:02:28.636Z,14.04
2023-05-13T09:04:58.592Z,14.03
2023-05-13T09:07:26.806Z,13.98
2023-05-13T09:09:55.249Z,13.92
2023-05-13T09:12:52.539Z,13.90
2023-05-13T09:15:27.703Z,13.91
2023-05-13T09:18:06.770Z,13.89
2023-05-13T09:20:36.161Z,13.87
2023-05-13T09:23:09.481Z,13.86
2023-05-13T09:25:41.174Z,13.81
2023-05-13T09:28:09.614Z,13.77
2023-05-13T09:30:42.077Z,13.73
2023-05-13T09:33:12.936Z,13.73
2023-05-13T09:35:43.062Z,13.72
2023-05-13T09:38:19.387Z,13.71
2023-05-13T09:40:59.260Z,13.70
2023-05-13T09:43:29.824Z,13.70
2023-05-13T09:46:01.759Z,13.69
2023-05-13T09:48:32.496Z,13.66
2023-05-13T09:51:01.524Z,13.63
2023-05-13T09:53:30.179Z,13.61
2023-05-13T09:56:00.766Z,13.59
2023-05-13T09:58:31.491Z,13.61
2023-05-13T10:01:00.455Z,13.61
2023-05-13T10:03:30.809Z,13.57
2023-05-13T10:06:03.276Z,13.53
2023-05-13T10:08:31.871Z,13.54
2023-05-13T10:11:00.710Z,13.52
2023-05-13T10:13:32.692Z,13.49
2023-05-13T10:16:01.208Z,13.49
2023-05-13T10:18:29.827Z,13.46
2023-05-13T10:20:58.770Z,13.44
2023-05-13T10:23:28.231Z,13.40
2023-05-13T10:25:57.160Z,13.40
2023-05-13T10:28:27.300Z,13.39
2023-05-13T10:30:55.486Z,13.40
2023-05-13T10:33:24.010Z,13.40
2023-05-13T10:36:09.308Z,13.40
2023-05-13T10:38:58.976Z,13.37
2023-05-13T10:41:55.314Z,13.34
2023-05-13T10:44:24.776Z,13.31
2023-05-13T10:46:53.274Z,13.30
2023-05-13T10:49:25.506Z,13.29
2023-05-13T10:51:53.866Z,13.28
2023-05-13T10:54:25.575Z,13.27
2023-05-13T10:57:00.697Z,13.28
2023-05-13T10:59:31.272Z,13.27
2023-05-13T11:02:03.571Z,13.26
2023-05-13T11:04:32.060Z,13.24
2023-05-13T11:07:17.412Z,13.22
2023-05-13T11:09:52.111Z,13.18
2023-05-13T11:12:20.338Z,13.20
2023-05-13T11:14:49.672Z,13.20
2023-05-13T11:17:21.488Z,13.18
2023-05-13T11:19:52.515Z,13.15
2023-05-13T11:22:22.918Z,13.12
2023-05-13T11:25:11.327Z,13.15
2023-05-13T11:27:42.285Z,13.18
2023-05-13T11:30:24.315Z,13.21
2023-05-13T11:32:56.984Z,13.28
2023-05-13T11:35:32.399Z,13.31
2023-05-13T11:38:02.576Z,13.37
2023-05-13T11:40:33.293Z,13.42
2023-05-13T11:43:02.557Z,13.46
2023-05-13T11:45:31.314Z,13.52
2023-05-13T11:47:59.915Z,13.57
2023-05-13T11:50:33.356Z,13.61
2023-05-13T11:53:02.907Z,13.66
2023-05-13T11:55:38.894Z,13.70
2023-05-13T11:58:07.129Z,13.73
2023-05-13T12:00:36.253Z,13.73
2023-05-13T12:03:12.489Z,13.78
2023-05-13T12:05:41.093Z,13.84
2023-05-13T12:08:10.841Z,13.91
2023-05-13T12:10:45.023Z,13.92
2023-05-13T12:13:13.754Z,13.95
2023-05-13T12:15:43.180Z,13.94
2023-05-13T12:18:11.559Z,13.94
2023-05-13T12:20:39.741Z,13.95
2023-05-13T12:23:07.989Z,13.97
2023-05-13T12:25:39.199Z,13.97
2023-05-13T12:28:21.568Z,14.01
2023-05-13T12:31:04.011Z,14.03
2023-05-13T12:33:34.478Z,14.03
2023-05-13T12:36:26.552Z,14.06
2023-05-13T12:39:01.711Z,14.09
2023-05-13T12:41:35.793Z,14.12
2023-05-13T12:44:10.566Z,14.13
2023-05-13T12:46:39.013Z,14.11
2023-05-13T12:49:07.353Z,14.13
2023-05-13T12:51:35.908Z,14.14
2023-05-13T12:54:04.078Z,14.17
2023-05-13T12:56:32.359Z,14.20
2023-05-13T12:59:00.596Z,14.23
2023-05-13T13:01:28.880Z,14.23
2023-05-13T13:03:57.179Z,14.24
2023-05-13T13:06:25.494Z,14.23
2023-05-13T13:08:53.712Z,14.22
2023-05-13T13:11:22.375Z,14.21
2023-05-13T13:13:51.735Z,14.19
2023-05-13T13:16:20.059Z,14.19
2023-05-13T13:18:48.709Z,14.23
2023-05-13T13:21:16.887Z,14.25
2023-05-13T13:23:45.199Z,14.26
2023-05-13T13:26:13.481Z,14.27
2023-05-13T13:28:41.697Z,14.30
2023-05-13T13:31:10.021Z,14.30
2023-05-13T13:33:38.201Z,14.31
2023-05-13T13:36:06.760Z,14.31
2023-05-13T13:38:34.953Z,14.33
2023-05-13T13:41:03.149Z,14.36
2023-05-13T13:43:31.368Z,14.39
2023-05-13T13:45:59.618Z,14.44
2023-05-13T13:48:27.872Z,14.45
2023-05-13T13:50:56.126Z,14.47
2023-05-13T13:53:24.343Z,14.51
2023-05-13T13:55:52.534Z,14.54
2023-05-13T13:58:20.776Z,14.59
2023-05-13T14:00:49.000Z,14.64
2023-05-13T14:03:17.253Z,14.68
2023-05-13T14:05:45.677Z,14.72
2023-05-13T14:08:13.840Z,14.75
2023-05-13T14:10:42.052Z,14.76
2023-05-13T14:13:10.268Z,14.80
2023-05-13T14:15:39.883Z,14.86
2023-05-13T14:18:09.203Z,14.91
2023-05-13T14:20:38.885Z,14.92
2023-05-13T14:23:07.052Z,14.95
2023-05-13T14:25:35.377Z,14.99
2023-05-13T14:28:03.630Z,15.03
2023-05-13T14:30:31.855Z,15.09
2023-05-13T14:33:01.524Z,15.14
2023-05-13T14:35:29.960Z,15.15
2023-05-13T14:37:58.210Z,15.15
2023-05-13T14:40:26.457Z,15.17
2023-05-13T14:42:54.672Z,15.19
2023-05-13T14:45:23.744Z,15.15
2023-05-13T14:47:54.601Z,15.18
2023-05-13T14:50:23.107Z,15.24
2023-05-13T14:52:51.703Z,15.25
2023-05-13T14:55:19.935Z,15.29
2023-05-13T14:57:48.666Z,15.35
2023-05-13T15:00:17.477Z,15.41
2023-05-13T15:02:45.773Z,15.45
2023-05-13T15:05:14.056Z,15.46
2023-05-13T15:07:42.681Z,15.48
2023-05-13T15:10:11.313Z,15.54
2023-05-13T15:12:39.531Z,15.65
2023-05-13T15:15:08.339Z,15.73
2023-05-13T15:17:37.332Z,15.82
2023-05-13T15:20:06.274Z,15.90
2023-05-13T15:22:34.517Z,15.98
2023-05-13T15:25:02.893Z,16.05
2023-05-13T15:27:31.263Z,16.09
2023-05-13T15:29:59.453Z,16.17
2023-05-13T15:32:27.744Z,16.30
2023-05-13T15:34:55.992Z,16.42
2023-05-13T15:37:24.178Z,16.48
2023-05-13T15:39:52.403Z,16.48
2023-05-13T15:42:20.585Z,16.53
2023-05-13T15:44:48.766Z,16.58
2023-05-13T15:47:17.045Z,16.67
2023-05-13T15:49:45.330Z,16.79
2023-05-13T15:52:13.607Z,16.86
2023-05-13T15:54:41.816Z,16.93
2023-05-13T15:57:10.007Z,17.04
2023-05-13T15:59:38.196Z,17.14
2023-05-13T16:02:06.448Z,17.18
2023-05-13T16:04:34.839Z,17.26
2023-05-13T16:07:03.372Z,17.38
2023-05-13T16:09:31.587Z,17.49
2023-05-13T16:11:59.767Z,17.58
2023-05-13T16:14:28.412Z,17.67
2023-05-13T16:16:56.878Z,17.80
2023-05-13T16:19:25.032Z,17.89
2023-05-13T16:21:53.259Z,18.03
2023-05-13T16:24:21.609Z,18.06
2023-05-13T16:26:50.257Z,18.12
2023-05-13T16:29:18.757Z,18.24
2023-05-13T16:31:47.048Z,18.40
2023-05-13T16:34:15.591Z,18.51
2023-05-13T16:36:43.764Z,18.63
2023-05-13T16:39:12.052Z,18.66
2023-05-13T16:41:41.107Z,18.76
2023-05-13T16:44:09.323Z,18.84
2023-05-13T16:46:37.505Z,18.89
2023-05-13T16:49:05.710Z,19.00
2023-05-13T16:51:33.978Z,19.11
2023-05-13T16:54:02.241Z,19.25
2023-05-13T16:56:32.108Z,19.37
2023-05-13T16:59:00.438Z,19.40
2023-05-13T17:01:28.688Z,19.43
2023-05-13T17:03:56.898Z,19.49
2023-05-13T17:06:25.055Z,19.60
2023-05-13T17:08:53.254Z,19.75
2023-05-13T17:11:22.520Z,19.86
2023-05-13T17:13:51.017Z,19.95
2023-05-13T17:16:19.247Z,20.06
2023-05-13T17:18:47.484Z,20.20
2023-05-13T17:21:15.653Z,20.33
2023-05-13T17:23:43.832Z,20.47
2023-05-13T17:26:12.206Z,20.59
2023-05-13T17:28:42.936Z,20.71
2023-05-13T17:31:11.118Z,20.80
2023-05-13T17:33:39.357Z,20.91
2023-05-13T17:36:07.779Z,21.06
2023-05-13T17:38:35.958Z,21.22
2023-05-13T17:41:04.309Z,21.43
2023-05-13T17:43:32.504Z,21.56
2023-05-13T17:46:00.753Z,21.71
2023-05-13T17:48:29.373Z,21.86
2023-05-13T17:50:58.805Z,22.00
2023-05-13T17:53:27.231Z,22.11
2023-05-13T17:55:55.554Z,22.19
2023-05-13T17:58:23.753Z,22.29
2023-05-13T18:00:52.001Z,22.39
2023-05-13T18:03:22.460Z,22.46
2023-05-13T18:05:50.786Z,22.54
2023-05-13T18:08:19.083Z,22.64
2023-05-13T18:10:48.573Z,22.72
2023-05-13T18:13:16.861Z,22.85
2023-05-13T18:15:45.062Z,22.97
2023-05-13T18:18:14.196Z,23.04
2023-05-13T18:20:42.941Z,23.10
2023-05-13T18:23:11.263Z,23.16
2023-05-13T18:25:52.150Z,23.26
2023-05-13T18:28:23.733Z,23.46
2023-05-13T18:30:52.051Z,23.67
2023-05-13T18:33:25.611Z,23.83
2023-05-13T18:35:54.057Z,23.95
2023-05-13T18:38:22.262Z,24.08
2023-05-13T18:40:50.565Z,24.18
2023-05-13T18:43:18.753Z,24.25
2023-05-13T18:45:47.043Z,24.37
2023-05-13T18:48:15.331Z,24.49
2023-05-13T18:50:43.563Z,24.67
2023-05-13T18:53:11.783Z,24.76
2023-05-13T18:55:40.194Z,24.86
2023-05-13T18:58:08.381Z,24.95
2023-05-13T19:00:38.239Z,25.06
2023-05-13T19:03:06.826Z,25.22
2023-05-13T19:05:35.219Z,25.51
2023-05-13T19:08:04.144Z,25.69
2023-05-13T19:10:36.906Z,25.80
2023-05-13T19:13:08.022Z,26.01
2023-05-13T19:15:36.771Z,26.09
2023-05-13T19:18:05.068Z,26.18
2023-05-13T19:20:33.353Z,26.36
2023-05-13T19:23:01.668Z,26.54
2023-05-13T19:25:30.114Z,26.69
2023-05-13T19:27:58.415Z,26.91
2023-05-13T19:30:26.624Z,27.00
2023-05-13T19:32:54.988Z,27.12
2023-05-13T19:35:24.268Z,27.30
2023-05-13T19:37:52.523Z,27.43
2023-05-13T19:40:20.994Z,27.56
2023-05-13T19:42:50.519Z,27.78
2023-05-13T19:45:22.345Z,27.98
2023-05-13T19:47:54.088Z,28.11
2023-05-13T19:50:22.832Z,28.25
2023-05-13T19:52:51.228Z,28.50
2023-05-13T19:55:19.580Z,28.73
2023-05-13T19:57:48.617Z,28.77
2023-05-13T20:00:17.717Z,28.93
2023-05-13T20:02:46.075Z,29.17
2023-05-13T20:05:14.363Z,29.29
2023-05-13T20:07:42.556Z,29.41
2023-05-13T20:10:11.721Z,29.66
2023-05-13T20:12:40.076Z,29.78
2023-05-13T20:15:08.579Z,29.85
2023-05-13T20:17:36.824Z,30.08
2023-05-13T20:20:05.964Z,30.28
2023-05-13T20:22:34.177Z,30.49
2023-05-13T20:25:02.450Z,30.72
2023-05-13T20:27:30.776Z,30.90
2023-05-13T20:30:00.951Z,31.16
2023-05-13T20:32:29.257Z,31.31
2023-05-13T20:34:57.525Z,31.44
2023-05-13T20:37:25.722Z,31.55
2023-05-13T20:39:53.882Z,31.67
2023-05-13T20:42:25.056Z,31.80
2023-05-13T20:44:53.305Z,32.04
2023-05-13T20:47:22.336Z,32.42
2023-05-13T20:49:50.898Z,32.66
2023-05-13T20:52:19.159Z,32.78
2023-05-13T20:54:47.386Z,32.86
2023-05-13T20:57:15.649Z,32.95
2023-05-13T20:59:43.898Z,33.00
2023-05-13T21:02:12.178Z,33.19
2023-05-13T21:04:40.559Z,33.38
2023-05-13T21:07:08.786Z,33.62
2023-05-13T21:09:36.993Z,33.79
2023-05-13T21:12:05.452Z,33.84
2023-05-13T21:14:33.964Z,33.94
2023-05-13T21:17:04.243Z,34.03
2023-05-13T21:19:32.494Z,34.04
2023-05-13T21:22:02.434Z,34.13
2023-05-13T21:24:30.644Z,34.14
2023-05-13T21:26:58.847Z,34.34
2023-05-13T21:29:27.188Z,34.44
2023-05-13T21:31:55.543Z,34.37
2023-05-13T21:34:23.844Z,34.34
2023-05-13T21:36:53.841Z,34.41
2023-05-13T21:39:22.022Z,34.46
2023-05-13T21:41:50.558Z,34.62
2023-05-13T21:44:18.733Z,34.53
2023-05-13T21:46:46.995Z,34.28
2023-05-13T21:49:15.222Z,34.37
2023-05-13T21:51:43.428Z,34.52
2023-05-13T21:54:11.768Z,34.57
2023-05-13T21:56:39.981Z,34.70
2023-05-13T21:59:08.203Z,34.86
2023-05-13T22:01:36.527Z,34.88
2023-05-13T22:04:04.776Z,34.75
2023-05-13T22:06:34.338Z,34.52
2023-05-13T22:09:02.638Z,34.52
2023-05-13T22:11:30.913Z,34.65
2023-05-13T22:14:01.149Z,34.79
2023-05-13T22:16:29.490Z,34.82
2023-05-13T22:19:00.555Z,35.00
2023-05-13T22:21:28.828Z,35.01
2023-05-13T22:23:57.171Z,34.89
2023-05-13T22:26:25.414Z,34.80
2023-05-13T22:28:53.743Z,34.73
2023-05-13T22:31:22.270Z,34.63
2023-05-13T22:33:50.744Z,34.65
2023-05-13T22:36:18.982Z,34.60
2023-05-13T22:38:47.415Z,34.48
2023-05-13T22:41:15.627Z,34.39
2023-05-13T22:43:43.812Z,34.41
2023-05-13T22:46:12.099Z,34.39
2023-05-13T22:48:40.348Z,34.34
2023-05-13T22:51:08.604Z,34.23
2023-05-13T22:53:36.872Z,34.16
2023-05-13T22:56:05.200Z,34.05
2023-05-13T22:58:33.390Z,33.94
2023-05-13T23:01:01.605Z,33.87
2023-05-13T23:03:29.910Z,33.84
2023-05-13T23:05:58.113Z,33.75
2023-05-13T23:08:26.524Z,33.70
2023-05-13T23:10:54.723Z,33.68
2023-05-13T23:13:22.937Z,33.52
2023-05-13T23:15:51.326Z,33.36
2023-05-13T23:18:19.611Z,33.20
2023-05-13T23:20:56.516Z,33.02
2023-05-13T23:23:25.074Z,32.96
2023-05-13T23:25:53.325Z,32.80
2023-05-13T23:28:21.563Z,32.64
2023-05-13T23:30:57.446Z,32.44
2023-05-13T23:33:25.668Z,32.33
2023-05-13T23:35:55.147Z,32.31
2023-05-13T23:38:24.313Z,32.35
2023-05-13T23:40:52.591Z,32.29
2023-05-13T23:43:20.898Z,32.18
2023-05-13T23:45:49.490Z,32.07
2023-05-13T23:48:17.789Z,32.02
2023-05-13T23:50:45.987Z,31.91
2023-05-13T23:53:14.238Z,31.75
2023-05-13T23:55:42.403Z,31.63
2023-05-13T23:58:10.597Z,31.57
